Time;durP1;ratioP1;P1;durP2;ratioP2;P2;SDS_P1;SDS_P2;PMS_P1;PMS_P2;Temp;Humidity;BMP_temperature;BMP_pressure;BME280_temperature;BME280_humidity;BME280_pressure;Samples;Min_cycle;Max_cycle;Signal;HPM_P1;HPM_P2
2021/04/11 00:01:17;;;;;;;18.73;4.20;;;37.30;13.10;;;;;;5092488;28;20079;-54
2021/04/11 00:03:43;;;;;;;11.93;3.22;;;37.20;13.00;;;;;;5092970;28;20159;-59
2021/04/11 00:06:10;;;;;;;23.85;3.90;;;37.20;13.20;;;;;;5092465;28;20149;-57
2021/04/11 00:08:36;;;;;;;19.02;3.25;;;37.10;13.80;;;;;;5093200;28;20072;-56
2021/04/11 00:11:04;;;;;;;18.60;3.28;;;36.90;13.10;;;;;;5096509;28;20096;-54
2021/04/11 00:13:39;;;;;;;20.17;4.90;;;36.80;13.40;;;;;;5089648;28;20526;-56
2021/04/11 00:16:06;;;;;;;19.92;4.07;;;36.80;13.50;;;;;;5099343;28;20072;-58
2021/04/11 00:18:33;;;;;;;21.27;3.50;;;36.70;13.20;;;;;;5092786;28;20092;-55
2021/04/11 00:21:03;;;;;;;14.65;4.30;;;36.70;13.30;;;;;;5092387;28;20076;-58
2021/04/11 00:23:30;;;;;;;20.73;3.80;;;36.70;13.60;;;;;;5092795;28;20129;-55
2021/04/11 00:25:57;;;;;;;18.60;3.97;;;36.70;13.40;;;;;;5100861;28;20069;-60
2021/04/11 00:28:23;;;;;;;20.70;3.92;;;36.70;13.70;;;;;;5094303;28;20081;-54
2021/04/11 00:30:50;;;;;;;16.70;3.78;;;36.70;13.60;;;;;;5091510;28;20073;-57
2021/04/11 00:33:33;;;;;;;21.13;3.38;;;36.70;13.60;;;;;;5097347;28;20100;-55
2021/04/11 00:36:01;;;;;;;13.98;3.35;;;36.60;13.20;;;;;;5097991;28;20076;-56
2021/04/11 00:38:29;;;;;;;17.45;3.58;;;36.50;13.20;;;;;;5094762;28;21563;-55
2021/04/11 00:40:59;;;;;;;15.98;3.47;;;36.40;13.50;;;;;;5094718;28;20141;-57
2021/04/11 00:43:26;;;;;;;15.65;3.42;;;36.40;13.40;;;;;;5092734;28;20085;-58
2021/04/11 00:46:22;;;;;;;15.30;3.88;;;36.40;13.00;;;;;;5091223;28;20076;-57
2021/04/11 00:48:50;;;;;;;15.45;3.75;;;36.30;13.60;;;;;;5091447;28;20117;-57
2021/04/11 00:51:25;;;;;;;15.00;3.13;;;36.40;13.30;;;;;;5100806;28;20077;-57
2021/04/11 00:53:57;;;;;;;15.23;4.35;;;36.50;13.50;;;;;;5096975;28;20124;-55
2021/04/11 00:56:25;;;;;;;14.05;3.88;;;36.40;13.30;;;;;;5095887;28;20541;-55
2021/04/11 00:58:52;;;;;;;20.98;4.30;;;36.10;13.70;;;;;;5081845;28;20132;-54
2021/04/11 01:01:18;;;;;;;13.15;3.78;;;35.70;13.80;;;;;;5099389;28;20065;-55
2021/04/11 01:03:45;;;;;;;16.00;4.25;;;35.50;13.90;;;;;;5096558;28;20084;-57
2021/04/11 01:06:20;;;;;;;13.95;3.85;;;35.20;14.00;;;;;;5096426;28;20069;-55
2021/04/11 01:08:49;;;;;;;20.02;3.67;;;35.00;14.10;;;;;;5101852;28;20076;-55
2021/04/11 01:11:18;;;;;;;17.83;3.42;;;34.90;14.10;;;;;;5096170;28;20088;-53
2021/04/11 01:13:49;;;;;;;16.27;3.97;;;34.70;14.30;;;;;;5098401;28;20124;-54
2021/04/11 01:16:17;;;;;;;22.05;4.13;;;34.60;14.50;;;;;;5094565;28;20068;-57
2021/04/11 01:18:46;;;;;;;21.75;3.78;;;34.50;14.70;;;;;;5100465;28;20494;-57
2021/04/11 01:21:30;;;;;;;13.18;3.60;;;34.30;14.60;;;;;;5096679;28;20088;-57
2021/04/11 01:24:12;;;;;;;11.05;3.42;;;34.10;14.70;;;;;;5099518;28;20541;-53
2021/04/11 01:26:41;;;;;;;13.60;3.58;;;34.00;14.80;;;;;;5096339;28;20543;-53
2021/04/11 01:29:09;;;;;;;15.05;4.03;;;33.90;14.50;;;;;;5098528;28;20068;-54
2021/04/11 01:31:36;;;;;;;17.20;3.70;;;33.80;14.50;;;;;;5096202;28;20149;-57
2021/04/11 01:34:06;;;;;;;9.57;3.70;;;33.60;14.60;;;;;;5097279;28;20073;-56
2021/04/11 01:36:36;;;;;;;13.80;3.30;;;33.50;14.90;;;;;;5096940;28;20084;-57
2021/04/11 01:39:10;;;;;;;17.27;4.28;;;33.40;14.70;;;;;;5099285;28;20125;-57
2021/04/11 01:41:40;;;;;;;16.35;4.57;;;33.40;15.20;;;;;;5095222;28;20069;-57
2021/04/11 01:44:10;;;;;;;24.23;5.03;;;33.30;15.40;;;;;;5094391;28;20073;-52
2021/04/11 01:46:37;;;;;;;19.98;4.90;;;33.30;15.20;;;;;;5099420;28;20142;-55
2021/04/11 01:49:04;;;;;;;18.20;4.40;;;33.10;15.80;;;;;;5075864;28;20077;-57
2021/04/11 01:51:37;;;;;;;17.70;3.60;;;33.00;16.20;;;;;;5098533;28;20563;-51
2021/04/11 01:54:09;;;;;;;12.68;3.38;;;32.90;15.10;;;;;;5097816;28;20433;-52
2021/04/11 01:56:43;;;;;;;20.83;4.10;;;32.80;15.40;;;;;;5097444;28;20068;-55
2021/04/11 01:59:11;;;;;;;19.00;4.53;;;32.70;15.80;;;;;;5093989;28;20456;-53
2021/04/11 02:01:39;;;;;;;18.17;4.65;;;32.60;16.40;;;;;;5094169;28;20542;-52
2021/04/11 02:04:07;;;;;;;20.80;4.75;;;32.50;16.00;;;;;;5098194;28;20076;-53
2021/04/11 02:06:43;;;;;;;20.27;4.55;;;32.30;16.20;;;;;;5097146;28;20410;-53
2021/04/11 02:09:14;;;;;;;16.00;3.80;;;32.20;16.20;;;;;;5092861;28;20090;-52
2021/04/11 02:11:41;;;;;;;14.02;3.90;;;32.10;16.10;;;;;;5100835;28;20108;-55
2021/04/11 02:14:10;;;;;;;23.27;5.68;;;32.00;16.80;;;;;;5092997;28;20529;-52
2021/04/11 02:16:36;;;;;;;29.13;6.35;;;32.00;16.80;;;;;;5098897;28;20088;-56
2021/04/11 02:19:21;;;;;;;35.97;7.35;;;31.80;16.80;;;;;;5096632;28;20105;-56
2021/04/11 02:22:02;;;;;;;40.28;6.22;;;31.80;17.10;;;;;;5098074;28;20091;-52
2021/04/11 02:24:30;;;;;;;34.10;4.50;;;31.70;17.30;;;;;;5096542;28;20088;-55
2021/04/11 02:26:57;;;;;;;37.60;5.05;;;31.60;16.90;;;;;;5094365;28;20461;-57
2021/04/11 02:29:25;;;;;;;28.25;4.13;;;31.60;17.10;;;;;;5095242;28;20072;-57
2021/04/11 02:31:52;;;;;;;34.45;4.60;;;31.50;16.90;;;;;;5099150;28;20080;-55
2021/04/11 02:34:28;;;;;;;34.40;4.60;;;31.50;16.80;;;;;;5101911;28;20078;-55
2021/04/11 02:37:02;;;;;;;25.38;4.72;;;31.40;16.80;;;;;;5096620;28;20531;-55
2021/04/11 02:39:37;;;;;;;24.88;3.90;;;31.40;16.50;;;;;;5099831;28;20103;-54
2021/04/11 02:42:07;;;;;;;28.52;4.32;;;31.30;15.90;;;;;;5095550;28;20098;-57
2021/04/11 02:44:41;;;;;;;23.55;4.18;;;31.10;15.70;;;;;;5099800;28;20081;-53
2021/04/11 02:47:09;;;;;;;35.58;4.47;;;31.10;15.60;;;;;;5092708;28;20427;-57
2021/04/11 02:49:35;;;;;;;24.63;4.90;;;31.00;15.80;;;;;;5099674;28;20084;-53
2021/04/11 02:52:06;;;;;;;44.03;5.07;;;31.00;15.70;;;;;;5097204;28;20069;-52
2021/04/11 02:54:32;;;;;;;25.27;3.90;;;30.90;15.70;;;;;;5099479;28;20531;-56
2021/04/11 02:56:59;;;;;;;23.35;4.68;;;30.80;15.70;;;;;;5092055;28;20468;-55
2021/04/11 02:59:26;;;;;;;27.15;4.40;;;30.80;15.70;;;;;;5099358;28;20107;-55
2021/04/11 03:01:53;;;;;;;24.80;4.13;;;30.70;15.90;;;;;;5100533;28;20155;-54
2021/04/11 03:04:23;;;;;;;20.75;4.00;;;30.60;15.90;;;;;;5091740;28;20081;-54
2021/04/11 03:07:01;;;;;;;21.85;4.13;;;30.50;15.90;;;;;;5093768;28;20083;-55
2021/04/11 03:09:35;;;;;;;22.40;3.53;;;30.50;16.20;;;;;;5093641;28;20077;-54
2021/04/11 03:12:05;;;;;;;22.38;4.10;;;30.40;16.30;;;;;;5094596;28;20121;-56
2021/04/11 03:14:35;;;;;;;21.95;3.53;;;30.30;16.50;;;;;;5098274;28;20108;-54
2021/04/11 03:17:12;;;;;;;20.52;3.20;;;30.30;16.30;;;;;;5094840;28;20075;-52
2021/04/11 03:19:44;;;;;;;26.38;4.72;;;30.20;16.20;;;;;;5097681;28;20104;-52
2021/04/11 03:22:12;;;;;;;19.30;3.40;;;30.10;16.50;;;;;;5090869;28;20134;-52
2021/04/11 03:24:38;;;;;;;24.58;3.70;;;30.00;16.40;;;;;;5095880;28;20081;-53
2021/04/11 03:27:14;;;;;;;32.47;4.75;;;30.00;16.60;;;;;;5093728;28;20156;-58
2021/04/11 03:29:53;;;;;;;24.77;4.32;;;29.90;16.90;;;;;;5099823;28;20095;-55
2021/04/11 03:32:26;;;;;;;30.85;4.90;;;29.90;16.80;;;;;;5096506;28;20079;-56
2021/04/11 03:34:54;;;;;;;32.15;4.80;;;29.80;17.00;;;;;;5096244;28;20088;-57
2021/04/11 03:37:23;;;;;;;27.38;4.60;;;29.70;16.90;;;;;;5090617;28;20102;-54
2021/04/11 03:39:50;;;;;;;23.27;4.70;;;29.60;17.00;;;;;;5095059;28;20093;-56
2021/04/11 03:42:20;;;;;;;18.05;4.72;;;29.50;17.00;;;;;;5098711;28;20084;-55
2021/04/11 03:44:47;;;;;;;21.77;4.60;;;29.40;16.90;;;;;;5090755;28;20088;-54
2021/04/11 03:47:36;;;;;;;20.30;3.70;;;29.40;16.90;;;;;;5098738;28;20420;-52
2021/04/11 03:50:19;;;;;;;20.05;3.47;;;29.40;16.90;;;;;;5092744;28;20727;-57
2021/04/11 03:52:54;;;;;;;17.25;3.08;;;29.30;16.80;;;;;;5093074;28;20636;-57
2021/04/11 03:55:24;;;;;;;23.25;3.33;;;29.20;16.70;;;;;;5094392;28;20072;-58
2021/04/11 03:57:54;;;;;;;15.18;3.28;;;29.10;17.10;;;;;;5097579;28;20076;-56
2021/04/11 04:00:46;;;;;;;20.65;3.50;;;29.10;17.30;;;;;;5099791;28;20536;-58
2021/04/11 04:03:18;;;;;;;19.67;4.47;;;29.00;17.40;;;;;;5095291;28;20534;-57
2021/04/11 04:05:48;;;;;;;18.92;3.90;;;28.90;17.70;;;;;;5098354;28;20543;-56
2021/04/11 04:08:15;;;;;;;24.63;4.38;;;28.90;17.80;;;;;;5077604;28;20164;-55
2021/04/11 04:11:01;;;;;;;19.83;2.80;;;28.80;18.00;;;;;;5097661;28;20071;-55
2021/04/11 04:13:40;;;;;;;17.25;3.60;;;28.80;18.00;;;;;;5095956;28;20135;-53
2021/04/11 04:16:13;;;;;;;16.35;3.22;;;28.60;18.00;;;;;;5094945;28;20072;-52
2021/04/11 04:19:01;;;;;;;16.30;3.33;;;28.50;18.50;;;;;;5099396;28;20092;-54
2021/04/11 04:21:49;;;;;;;20.10;3.30;;;28.50;18.70;;;;;;5094427;28;20068;-53
2021/04/11 04:25:05;;;;;;;13.85;3.42;;;28.50;18.40;;;;;;5095312;28;20100;-55
2021/04/11 04:27:37;;;;;;;15.23;2.78;;;28.40;18.40;;;;;;5083977;28;20080;-54
2021/04/11 04:30:21;;;;;;;15.85;3.00;;;28.30;18.80;;;;;;5093951;28;20065;-56
2021/04/11 04:33:09;;;;;;;22.73;3.63;;;28.20;18.60;;;;;;5079642;28;20076;-56
2021/04/11 04:35:38;;;;;;;21.15;3.92;;;28.10;18.90;;;;;;5096844;28;20081;-53
2021/04/11 04:38:20;;;;;;;18.08;3.50;;;28.10;18.90;;;;;;5096225;28;20073;-55
2021/04/11 04:41:01;;;;;;;26.00;4.55;;;28.00;18.80;;;;;;5096318;28;20179;-54
2021/04/11 04:43:52;;;;;;;25.52;4.90;;;28.00;19.00;;;;;;5094901;28;20079;-51
2021/04/11 04:46:30;;;;;;;24.75;5.72;;;27.90;19.10;;;;;;5092204;28;20077;-52
2021/04/11 04:49:15;;;;;;;20.52;5.68;;;27.90;18.60;;;;;;5090713;28;20209;-54
2021/04/11 04:52:15;;;;;;;22.48;5.40;;;27.70;18.60;;;;;;5094259;28;20076;-55
2021/04/11 04:54:55;;;;;;;15.23;4.55;;;27.70;19.10;;;;;;5075847;28;20080;-55
2021/04/11 04:57:58;;;;;;;26.00;5.05;;;27.60;19.80;;;;;;5095818;28;20098;-54
2021/04/11 05:00:52;;;;;;;19.50;4.72;;;27.60;19.60;;;;;;5095956;28;20104;-57
2021/04/11 05:03:26;;;;;;;16.77;5.00;;;27.50;19.50;;;;;;5091856;28;20065;-57
2021/04/11 05:06:07;;;;;;;24.20;5.13;;;27.50;20.10;;;;;;5096046;28;20068;-52
2021/04/11 05:08:40;;;;;;;19.83;5.32;;;27.40;19.50;;;;;;5096221;28;20072;-53
2021/04/11 05:11:19;;;;;;;19.83;4.90;;;27.30;20.20;;;;;;5093253;28;20096;-55
2021/04/11 05:14:08;;;;;;;26.15;5.13;;;27.30;20.60;;;;;;5089343;28;20119;-56
2021/04/11 05:16:54;;;;;;;27.45;6.07;;;27.20;20.20;;;;;;5093606;28;20089;-56
2021/04/11 05:19:29;;;;;;;20.85;6.40;;;27.10;20.10;;;;;;5096798;28;20099;-56
2021/04/11 05:22:14;;;;;;;21.38;7.60;;;27.00;20.70;;;;;;5098946;28;20172;-57
2021/04/11 05:24:45;;;;;;;32.53;9.38;;;27.00;21.00;;;;;;5094940;28;20516;-56
2021/04/11 05:27:26;;;;;;;31.67;11.73;;;26.90;20.80;;;;;;5099120;28;20076;-57
2021/04/11 05:30:35;;;;;;;33.45;11.57;;;26.90;20.90;;;;;;5094933;28;20078;-52
2021/04/11 05:33:02;;;;;;;25.25;6.38;;;26.80;21.30;;;;;;5076560;28;20104;-52
2021/04/11 05:35:32;;;;;;;23.02;7.18;;;26.70;21.90;;;;;;5093532;28;20107;-56
2021/04/11 05:38:26;;;;;;;25.55;6.68;;;26.70;22.00;;;;;;5100755;28;20520;-51
2021/04/11 05:41:16;;;;;;;23.08;8.77;;;26.70;22.10;;;;;;5101709;28;20636;-54
2021/04/11 05:43:57;;;;;;;18.40;8.55;;;26.60;22.30;;;;;;5105076;28;20068;-52
2021/04/11 05:46:36;;;;;;;24.23;9.18;;;26.60;22.30;;;;;;5100015;28;20073;-53
2021/04/11 05:49:10;;;;;;;25.58;8.88;;;26.50;22.50;;;;;;5103364;28;20090;-53
2021/04/11 05:51:48;;;;;;;26.77;12.07;;;26.50;22.60;;;;;;5076998;28;20129;-54
2021/04/11 05:54:24;;;;;;;34.70;13.40;;;26.50;22.70;;;;;;5100119;28;20117;-56
2021/04/11 05:57:01;;;;;;;35.17;11.55;;;26.40;22.70;;;;;;5099690;28;20159;-51
2021/04/11 05:59:34;;;;;;;25.13;10.00;;;26.30;22.90;;;;;;5098172;28;20104;-55
2021/04/11 06:02:02;;;;;;;34.08;8.60;;;26.30;22.90;;;;;;5097429;28;20079;-59
2021/04/11 06:04:55;;;;;;;40.10;8.30;;;26.20;22.90;;;;;;5095921;28;20077;-60
2021/04/11 06:07:28;;;;;;;39.00;7.53;;;26.20;22.90;;;;;;5101248;28;20501;-56
2021/04/11 06:10:10;;;;;;;48.38;6.90;;;26.10;22.90;;;;;;5097231;28;20077;-52
2021/04/11 06:13:04;;;;;;;480.73;35.55;;;26.10;22.70;;;;;;5102945;28;20468;-55
2021/04/11 06:15:54;;;;;;;40.97;7.63;;;26.10;23.10;;;;;;5096797;28;20073;-55
2021/04/11 06:18:21;;;;;;;37.42;6.60;;;26.00;23.40;;;;;;5101048;28;20069;-57
2021/04/11 06:20:50;;;;;;;26.42;6.57;;;25.90;23.00;;;;;;5094150;28;20460;-54
2021/04/11 06:23:35;;;;;;;33.65;6.95;;;25.90;22.80;;;;;;5092833;28;20064;-54
2021/04/11 06:26:04;;;;;;;28.85;6.60;;;25.90;22.90;;;;;;5094492;28;20085;-55
2021/04/11 06:29:06;;;;;;;40.63;7.93;;;25.80;23.10;;;;;;5094401;28;20169;-54
2021/04/11 06:32:02;;;;;;;48.15;9.60;;;25.70;23.00;;;;;;5092472;28;20502;-52
2021/04/11 06:34:52;;;;;;;41.30;9.38;;;25.70;23.10;;;;;;5093006;28;20134;-55
2021/04/11 06:37:21;;;;;;;38.88;8.18;;;25.70;23.40;;;;;;5101772;28;20076;-55
2021/04/11 06:39:49;;;;;;;40.25;7.80;;;25.60;23.70;;;;;;5091446;28;20145;-58
2021/04/11 06:42:18;;;;;;;54.65;8.98;;;25.50;24.00;;;;;;5093744;28;20168;-55
2021/04/11 06:44:48;;;;;;;38.53;9.13;;;25.60;24.50;;;;;;5098429;28;20080;-52
2021/04/11 06:47:32;;;;;;;38.60;9.10;;;25.50;24.60;;;;;;5092761;28;20089;-53
2021/04/11 06:50:10;;;;;;;28.55;7.97;;;25.40;25.00;;;;;;5093518;28;20080;-54
2021/04/11 06:52:55;;;;;;;21.88;6.97;;;25.40;24.90;;;;;;5095817;28;20079;-54
2021/04/11 06:55:24;;;;;;;21.13;7.35;;;25.30;24.60;;;;;;5093768;28;20451;-59
2021/04/11 06:58:18;;;;;;;23.85;7.35;;;25.20;24.70;;;;;;5095101;28;20164;-51
2021/04/11 07:01:06;;;;;;;31.25;8.35;;;25.20;25.10;;;;;;5063914;28;20128;-52
2021/04/11 07:03:57;;;;;;;30.75;9.10;;;25.10;26.00;;;;;;5095904;28;20072;-53
2021/04/11 07:06:49;;;;;;;30.90;8.60;;;25.00;26.90;;;;;;5095395;28;20068;-50
2021/04/11 07:09:24;;;;;;;25.52;8.32;;;25.00;28.10;;;;;;5094863;28;20088;-52
2021/04/11 07:12:09;;;;;;;29.42;8.35;;;24.90;28.00;;;;;;5092506;28;20460;-51
2021/04/11 07:15:05;;;;;;;32.38;8.10;;;24.90;28.50;;;;;;5095115;28;20076;-54
2021/04/11 07:18:08;;;;;;;33.13;8.60;;;24.90;28.40;;;;;;5097691;28;20104;-57
2021/04/11 07:20:56;;;;;;;27.02;7.38;;;24.90;28.40;;;;;;5092783;28;20096;-55
2021/04/11 07:23:35;;;;;;;19.83;6.50;;;24.80;27.70;;;;;;5094840;28;20146;-52
2021/04/11 07:26:26;;;;;;;21.95;6.63;;;24.70;27.50;;;;;;5093702;28;20076;-53
2021/04/11 07:28:52;;;;;;;26.05;6.13;;;24.50;27.60;;;;;;5095404;28;20112;-55
2021/04/11 07:31:40;;;;;;;22.92;5.72;;;24.50;27.80;;;;;;5095629;28;20072;-55
2021/04/11 07:34:27;;;;;;;28.65;6.68;;;24.50;27.40;;;;;;5097974;28;20073;-56
2021/04/11 07:37:09;;;;;;;29.33;6.97;;;24.40;27.30;;;;;;5091986;28;20069;-54
2021/04/11 07:39:46;;;;;;;35.97;6.75;;;24.30;27.50;;;;;;5095131;28;20161;-52
2021/04/11 07:42:49;;;;;;;26.60;6.85;;;24.30;28.00;;;;;;5093544;28;20100;-55
2021/04/11 07:45:40;;;;;;;31.77;7.63;;;24.30;27.20;;;;;;5095999;28;20548;-55
2021/04/11 07:48:46;;;;;;;20.58;6.47;;;24.30;27.20;;;;;;5095263;28;20184;-56
2021/04/11 07:51:18;;;;;;;23.15;5.80;;;24.20;27.30;;;;;;5092647;28;20127;-53
2021/04/11 07:54:10;;;;;;;25.67;5.97;;;24.20;27.90;;;;;;5093839;28;20073;-54
2021/04/11 07:57:11;;;;;;;24.63;5.55;;;24.20;28.40;;;;;;5097099;28;20076;-51
2021/04/11 07:59:52;;;;;;;29.00;5.93;;;24.20;28.70;;;;;;5013481;28;20094;-53
2021/04/11 08:02:36;;;;;;;20.05;5.18;;;24.20;29.00;;;;;;5083973;28;20076;-56
2021/04/11 08:05:22;;;;;;;30.90;5.80;;;24.10;28.90;;;;;;5093518;28;20081;-52
2021/04/11 08:08:26;;;;;;;17.90;4.45;;;24.10;28.70;;;;;;5091923;28;20385;-55
2021/04/11 08:11:26;;;;;;;23.15;5.72;;;24.00;28.70;;;;;;5070607;28;20077;-55
2021/04/11 08:14:31;;;;;;;29.52;5.45;;;24.00;28.70;;;;;;5091555;28;20085;-51
2021/04/11 08:17:33;;;;;;;24.25;5.40;;;23.90;29.20;;;;;;5090965;28;20075;-52
2021/04/11 08:20:03;;;;;;;28.85;5.53;;;23.90;30.20;;;;;;5091345;28;20096;-52
2021/04/11 08:23:03;;;;;;;32.60;5.57;;;23.90;30.50;;;;;;5094667;28;20509;-51
2021/04/11 08:25:29;;;;;;;38.35;8.20;;;23.80;31.00;;;;;;5092718;28;20129;-53
2021/04/11 08:28:18;;;;;;;33.97;7.93;;;23.80;31.60;;;;;;5095987;28;20110;-51
2021/04/11 08:31:29;;;;;;;39.65;8.20;;;23.70;32.00;;;;;;5095161;28;20125;-51
2021/04/11 08:34:16;;;;;;;30.58;6.57;;;23.70;32.40;;;;;;5039022;28;20605;-52
2021/04/11 08:36:56;;;;;;;45.47;7.45;;;23.60;32.30;;;;;;5097210;28;20081;-55
2021/04/11 08:39:56;;;;;;;32.08;7.03;;;23.50;32.30;;;;;;5094937;28;20115;-53
2021/04/11 08:42:45;;;;;;;26.67;6.13;;;23.60;32.30;;;;;;5094728;28;20799;-55
2021/04/11 08:45:38;;;;;;;31.90;5.72;;;23.50;32.50;;;;;;5093348;28;20073;-52
2021/04/11 08:48:04;;;;;;;20.13;5.18;;;23.40;33.00;;;;;;5099273;28;20147;-52
2021/04/11 08:51:14;;;;;;;27.00;5.95;;;23.40;33.20;;;;;;5094034;28;20088;-55
2021/04/11 08:54:13;;;;;;;35.03;5.75;;;23.40;33.10;;;;;;5092183;28;20091;-50
2021/04/11 08:56:45;;;;;;;30.85;5.18;;;23.30;33.10;;;;;;5090198;28;20068;-55
2021/04/11 08:59:50;;;;;;;25.17;5.30;;;23.30;33.70;;;;;;5089540;28;21371;-54
2021/04/11 09:02:32;;;;;;;30.88;5.45;;;23.20;33.50;;;;;;5073883;28;20588;-53
2021/04/11 09:05:23;;;;;;;26.02;5.40;;;23.20;34.10;;;;;;5094425;28;20473;-54
2021/04/11 09:08:15;;;;;;;35.53;5.90;;;23.30;33.80;;;;;;5094849;28;20562;-53
2021/04/11 09:11:04;;;;;;;24.10;5.18;;;23.20;33.60;;;;;;5096027;28;20080;-54
2021/04/11 09:13:49;;;;;;;24.75;5.10;;;23.20;34.10;;;;;;5097960;28;20116;-54
2021/04/11 09:16:48;;;;;;;25.02;5.40;;;23.30;33.80;;;;;;5098237;28;20075;-53
2021/04/11 09:19:29;;;;;;;32.97;5.38;;;23.30;33.90;;;;;;5093392;28;20111;-56
2021/04/11 09:22:20;;;;;;;26.70;4.78;;;23.20;34.40;;;;;;5094171;28;20498;-52
2021/04/11 09:25:04;;;;;;;28.23;5.57;;;23.20;34.10;;;;;;5098343;28;20185;-54
2021/04/11 09:28:01;;;;;;;25.35;5.90;;;23.20;34.20;;;;;;5095328;28;20068;-51
2021/04/11 09:30:43;;;;;;;23.85;5.60;;;23.10;34.10;;;;;;5097899;28;20698;-51
2021/04/11 09:33:18;;;;;;;25.38;5.35;;;23.10;34.70;;;;;;5094477;28;20113;-52
2021/04/11 09:36:06;;;;;;;30.70;6.40;;;23.10;35.20;;;;;;5097630;28;20084;-51
2021/04/11 09:38:45;;;;;;;29.02;6.22;;;22.90;35.60;;;;;;5095853;28;20546;-53
2021/04/11 09:41:39;;;;;;;43.10;6.38;;;22.90;35.80;;;;;;5095153;28;20092;-51
2021/04/11 09:44:24;;;;;;;29.88;7.00;;;22.70;36.10;;;;;;5095180;28;20130;-53
2021/04/11 09:47:16;;;;;;;26.58;6.03;;;22.80;36.30;;;;;;5093818;28;20165;-54
2021/04/11 09:50:05;;;;;;;32.78;6.28;;;22.70;36.10;;;;;;5097106;28;20110;-54
2021/04/11 09:52:42;;;;;;;29.67;7.22;;;22.60;36.20;;;;;;5101207;28;20083;-53
2021/04/11 09:55:11;;;;;;;;;;;22.60;36.60;;;;;;5097911;28;20113;-52
2021/04/11 09:58:15;;;;;;;29.98;7.15;;;22.60;37.20;;;;;;5096558;28;19962;-52
2021/04/11 10:00:59;;;;;;;43.17;8.32;;;22.50;37.30;;;;;;5098207;28;20091;-53
2021/04/11 10:03:44;;;;;;;52.03;7.60;;;22.50;37.20;;;;;;5101518;28;20159;-55
2021/04/11 10:06:20;;;;;;;40.50;7.88;;;22.50;37.40;;;;;;5096486;28;20479;-53
2021/04/11 10:09:23;;;;;;;55.67;9.15;;;22.50;37.30;;;;;;5097487;28;20088;-51
2021/04/11 10:12:00;;;;;;;35.55;7.18;;;22.50;38.10;;;;;;5097114;28;20143;-53
2021/04/11 10:14:39;;;;;;;40.53;7.97;;;22.40;37.30;;;;;;5098014;28;20541;-51
2021/04/11 10:17:36;;;;;;;56.38;8.13;;;22.40;37.20;;;;;;5097381;28;20521;-55
2021/04/11 10:20:30;;;;;;;52.83;8.45;;;22.30;37.50;;;;;;5096501;28;20100;-52
2021/04/11 10:23:08;;;;;;;37.92;8.20;;;22.30;37.60;;;;;;5097028;28;20080;-51
2021/04/11 10:25:42;;;;;;;43.08;7.80;;;22.40;37.90;;;;;;5098230;28;20103;-53
2021/04/11 10:28:19;;;;;;;44.95;8.85;;;22.40;38.20;;;;;;5097405;28;20076;-51
2021/04/11 10:30:54;;;;;;;59.28;8.82;;;22.30;38.50;;;;;;5097869;28;20100;-57
2021/04/11 10:33:36;;;;;;;38.85;7.45;;;22.30;38.20;;;;;;5097953;28;20073;-54
2021/04/11 10:36:12;;;;;;;53.88;9.00;;;22.30;38.00;;;;;;5096370;28;20510;-52
2021/04/11 10:38:48;;;;;;;43.50;8.27;;;22.20;38.40;;;;;;5095557;28;20091;-55
2021/04/11 10:41:25;;;;;;;50.78;8.70;;;22.20;38.50;;;;;;5096055;28;20544;-53
2021/04/11 10:43:52;;;;;;;49.63;8.32;;;22.10;39.50;;;;;;5094301;28;20444;-51
2021/04/11 10:46:34;;;;;;;47.33;7.88;;;22.10;38.90;;;;;;5096813;28;20079;-52
2021/04/11 10:49:24;;;;;;;42.60;8.70;;;22.10;38.90;;;;;;5099831;28;20072;-52
2021/04/11 10:52:12;;;;;;;46.42;8.43;;;22.10;38.80;;;;;;5096875;28;20080;-55
2021/04/11 10:54:51;;;;;;;49.67;8.43;;;22.10;39.10;;;;;;5095462;28;20073;-52
2021/04/11 10:57:51;;;;;;;50.53;9.18;;;22.10;39.90;;;;;;5095478;28;20076;-51
2021/04/11 11:00:47;;;;;;;45.92;7.93;;;22.00;40.00;;;;;;5096787;28;20096;-61
2021/04/11 11:03:38;;;;;;;43.08;8.52;;;22.00;40.00;;;;;;5094254;28;20064;-55
2021/04/11 11:06:23;;;;;;;42.05;8.95;;;21.90;39.60;;;;;;5091121;28;20090;-52
2021/04/11 11:08:52;;;;;;;59.13;9.52;;;21.90;40.30;;;;;;5092860;28;20067;-52
2021/04/11 11:11:59;;;;;;;41.78;8.45;;;21.80;40.20;;;;;;5095343;28;20076;-51
2021/04/11 11:15:00;;;;;;;41.13;8.27;;;21.80;40.00;;;;;;5096933;28;20088;-55
2021/04/11 11:17:48;;;;;;;44.50;8.52;;;21.80;39.80;;;;;;5092007;28;20095;-54
2021/04/11 11:20:37;;;;;;;43.08;7.78;;;21.80;39.70;;;;;;5096886;28;20092;-55
2021/04/11 11:23:15;;;;;;;41.55;8.93;;;21.80;39.60;;;;;;5092823;28;20068;-55
2021/04/11 11:26:30;;;;;;;34.90;8.52;;;21.80;39.50;;;;;;5094092;28;20129;-53
2021/04/11 11:29:02;;;;;;;51.40;10.65;;;21.80;39.40;;;;;;5075796;28;20084;-54
2021/04/11 11:31:40;;;;;;;41.03;9.73;;;21.80;39.20;;;;;;5090478;28;20543;-51
2021/04/11 11:34:28;;;;;;;40.92;10.30;;;21.90;39.00;;;;;;5097128;28;20072;-51
2021/04/11 11:37:01;;;;;;;46.08;11.35;;;21.90;38.60;;;;;;5093262;28;20164;-53
2021/04/11 11:39:48;;;;;;;40.83;10.02;;;21.90;38.70;;;;;;5073558;28;20147;-51
2021/04/11 11:42:30;;;;;;;48.28;12.15;;;21.90;38.60;;;;;;5092934;28;20084;-51
2021/04/11 11:44:59;;;;;;;53.00;11.40;;;21.90;38.40;;;;;;5098710;28;20119;-54
2021/04/11 11:48:07;;;;;;;45.50;11.27;;;22.00;38.00;;;;;;5093533;28;20479;-52
2021/04/11 11:50:41;;;;;;;55.95;12.55;;;22.00;38.50;;;;;;5076533;28;20076;-52
2021/04/11 11:53:11;;;;;;;49.40;11.90;;;22.10;38.50;;;;;;5095771;28;20109;-51
2021/04/11 11:55:58;;;;;;;56.13;12.07;;;22.00;38.50;;;;;;5089349;28;20125;-53
2021/04/11 11:58:36;;;;;;;54.17;12.20;;;22.00;38.10;;;;;;5094151;28;20493;-51
2021/04/11 12:01:12;;;;;;;50.67;11.48;;;22.00;38.60;;;;;;5095790;28;20187;-53
2021/04/11 12:03:39;;;;;;;42.78;12.43;;;22.00;38.20;;;;;;5092427;28;20068;-51
2021/04/11 12:06:17;;;;;;;46.95;11.57;;;21.90;38.50;;;;;;5095900;28;20084;-52
2021/04/11 12:09:03;;;;;;;41.95;10.90;;;21.90;38.10;;;;;;5093951;28;20151;-51
2021/04/11 12:11:37;;;;;;;46.05;10.85;;;21.70;37.90;;;;;;5095233;28;20488;-52
2021/04/11 12:14:19;;;;;;;42.10;10.90;;;21.80;38.30;;;;;;5095331;28;20063;-53
2021/04/11 12:17:01;;;;;;;43.85;11.27;;;21.80;37.80;;;;;;5091036;28;20175;-51
2021/04/11 12:19:38;;;;;;;53.70;11.98;;;21.80;37.80;;;;;;5093303;28;20175;-51
2021/04/11 12:22:13;;;;;;;;;;;21.80;37.90;;;;;;5094609;28;20123;-51
2021/04/11 12:24:57;;;;;;;50.58;12.15;;;21.80;36.80;;;;;;5090468;28;20322;-55
2021/04/11 12:27:33;;;;;;;52.70;11.05;;;21.70;37.50;;;;;;5096306;28;20138;-52
2021/04/11 12:30:01;;;;;;;46.88;10.48;;;21.70;37.30;;;;;;5094439;28;20068;-52
2021/04/11 12:32:56;;;;;;;41.67;9.38;;;21.60;36.60;;;;;;5095992;28;20083;-52
2021/04/11 12:35:33;;;;;;;53.08;10.18;;;21.60;36.80;;;;;;5092048;28;20069;-51
2021/04/11 12:38:50;;;;;;;42.50;9.95;;;21.60;36.30;;;;;;5092590;28;20093;-52
2021/04/11 12:41:25;;;;;;;41.53;9.45;;;21.60;36.20;;;;;;5005969;28;20098;-52
2021/04/11 12:44:31;;;;;;;37.47;9.65;;;21.50;36.10;;;;;;5086606;28;20087;-51
2021/04/11 12:47:19;;;;;;;39.47;10.35;;;21.50;36.10;;;;;;5092902;28;20663;-55
2021/04/11 12:50:28;;;;;;;32.05;9.63;;;21.50;36.30;;;;;;5094205;28;20077;-52
2021/04/11 12:53:00;;;;;;;29.25;8.50;;;21.50;36.30;;;;;;5094706;28;20133;-54
2021/04/11 12:55:48;;;;;;;28.05;8.00;;;21.50;35.90;;;;;;5092364;28;20088;-52
2021/04/11 12:58:29;;;;;;;40.22;7.80;;;21.50;35.90;;;;;;5093592;28;20429;-51
2021/04/11 13:01:20;;;;;;;42.63;8.27;;;21.50;36.50;;;;;;5095626;28;20254;-53
2021/04/11 13:04:08;;;;;;;35.38;7.63;;;21.40;36.40;;;;;;5092521;28;20077;-50
2021/04/11 13:06:50;;;;;;;35.05;7.68;;;21.40;36.40;;;;;;5089880;28;20464;-51
2021/04/11 13:09:52;;;;;;;38.03;7.78;;;21.50;36.60;;;;;;5094414;28;20072;-52
2021/04/11 13:12:39;;;;;;;25.77;6.75;;;21.50;36.60;;;;;;5089230;28;20111;-51
2021/04/11 13:15:21;;;;;;;39.58;7.30;;;21.50;36.80;;;;;;5094662;28;20072;-56
2021/04/11 13:18:13;;;;;;;32.78;7.43;;;21.50;37.00;;;;;;5090630;28;20073;-54
2021/04/11 13:20:42;;;;;;;34.40;8.15;;;21.40;36.90;;;;;;5087850;28;20173;-55
2021/04/11 13:23:17;;;;;;;38.00;8.57;;;21.40;36.90;;;;;;5094193;28;20572;-54
2021/04/11 13:26:16;;;;;;;44.45;8.85;;;21.40;36.80;;;;;;5090736;28;20084;-52
2021/04/11 13:28:56;;;;;;;40.55;8.68;;;21.30;36.80;;;;;;5075478;28;20073;-52
2021/04/11 13:31:28;;;;;;;45.95;10.40;;;21.30;36.90;;;;;;5096655;28;20140;-51
2021/04/11 13:34:59;;;;;;;42.55;9.73;;;21.40;37.20;;;;;;5090647;28;20129;-54
2021/04/11 13:37:26;;;;;;;50.65;9.90;;;21.40;36.70;;;;;;4995296;28;20078;-55
2021/04/11 13:40:06;;;;;;;45.70;9.75;;;21.40;37.20;;;;;;5094862;28;20092;-49
2021/04/11 13:43:13;;;;;;;48.70;9.73;;;21.40;37.10;;;;;;5090385;28;20121;-51